Weather at Mount Pleasant Municipal Airport

Public forecast

Using degrees Fahrenheit for public forecast. Weather courtesy of forecast.io.

Current aviation weather report (METAR) for Mount Pleasant Municipal Airport

Retrieved 2020/09/30 20:35 UTC (20 minutes ago):

KMOP 302035Z AUTO 26005KT 10SM CLR 17/11 A2948 RMK AO2 T01650113

Closest aviation forecast (TAF) to Mount Pleasant Municipal Airport

Closest forecast is MBS International Airport, 29.1 nm (53.9 km) E. Retrieved 2020/09/30 18:24 UTC (3 hours ago):

TAF KMBS 301723Z 3018/0118 21012KT 6SM -SHRA BR BKN025 BKN040 FM301900 22012G20KT P6SM -SHRA BKN030 BKN050 TEMPO 3019/3022 4SM TSRA BR BKN025CB OVC040 FM302300 27010KT P6SM VCSH SCT028 OVC045 FM010600 24006KT P6SM SCT045 BKN080